createdAt,value
2022-11-27T00:04:28.071Z,59.79
2022-11-27T00:09:31.135Z,59.53
2022-11-27T00:14:34.062Z,59.79
2022-11-27T00:19:37.342Z,59.49
2022-11-27T00:24:40.866Z,59.66
2022-11-27T00:29:44.147Z,60.55
2022-11-27T00:34:47.050Z,60.31
2022-11-27T00:39:50.033Z,59.55
2022-11-27T00:44:52.988Z,60.18
2022-11-27T00:49:55.959Z,59.28
2022-11-27T00:54:59.068Z,59.50
2022-11-27T01:00:02.300Z,60.11
2022-11-27T01:05:06.678Z,60.34
2022-11-27T01:10:09.956Z,59.82
2022-11-27T01:15:13.137Z,60.77
2022-11-27T01:20:16.177Z,59.79
2022-11-27T01:25:21.932Z,61.00
2022-11-27T01:30:28.573Z,60.58
2022-11-27T01:35:33.724Z,60.37
2022-11-27T01:40:36.837Z,60.58
2022-11-27T01:45:39.808Z,60.95
2022-11-27T01:50:42.902Z,60.27
2022-11-27T01:55:56.574Z,60.45
2022-11-27T02:01:00.810Z,60.38
2022-11-27T02:06:04.185Z,60.48
2022-11-27T02:11:36.491Z,60.25
2022-11-27T02:17:05.087Z,61.16
2022-11-27T02:22:19.239Z,61.45
2022-11-27T02:27:42.247Z,60.74
2022-11-27T02:32:56.023Z,60.52
2022-11-27T02:38:16.360Z,60.60
2022-11-27T02:43:25.690Z,60.41
2022-11-27T02:48:34.636Z,61.06
2022-11-27T02:53:43.601Z,61.04
2022-11-27T02:58:48.312Z,61.31
2022-11-27T03:03:58.423Z,60.78
2022-11-27T03:09:10.966Z,60.64
2022-11-27T03:14:15.538Z,60.41
2022-11-27T03:19:40.778Z,60.32
2022-11-27T03:24:44.140Z,60.36
2022-11-27T03:29:53.214Z,60.66
2022-11-27T03:34:56.876Z,60.55
2022-11-27T03:40:00.219Z,60.47
2022-11-27T03:45:26.574Z,60.86
2022-11-27T03:50:44.219Z,61.31
2022-11-27T03:56:14.434Z,61.16
2022-11-27T04:01:20.311Z,60.90
2022-11-27T04:06:23.487Z,61.41
2022-11-27T04:11:26.558Z,61.39
2022-11-27T04:16:29.869Z,61.56
2022-11-27T04:21:32.857Z,60.99
2022-11-27T04:26:35.847Z,60.87
2022-11-27T04:31:38.907Z,61.31
2022-11-27T04:36:42.890Z,61.20
2022-11-27T04:41:45.878Z,60.73
2022-11-27T04:46:50.493Z,61.21
2022-11-27T04:51:53.533Z,60.82
2022-11-27T04:56:56.555Z,60.91
2022-11-27T05:01:59.556Z,61.38
2022-11-27T05:07:02.648Z,61.33
2022-11-27T05:12:05.939Z,61.08
2022-11-27T05:17:10.175Z,61.11
2022-11-27T05:22:13.217Z,60.96
2022-11-27T05:27:16.267Z,61.63
2022-11-27T05:32:19.322Z,61.79
2022-11-27T05:37:22.273Z,61.60
2022-11-27T05:42:25.288Z,61.39
2022-11-27T05:47:28.335Z,60.74
2022-11-27T05:52:31.342Z,61.08
2022-11-27T05:57:34.333Z,61.25
2022-11-27T06:02:37.504Z,60.75
2022-11-27T06:07:41.146Z,60.61
2022-11-27T06:12:44.174Z,60.69
2022-11-27T06:17:49.637Z,61.17
2022-11-27T06:22:52.665Z,61.24
2022-11-27T06:27:55.788Z,60.05
2022-11-27T06:32:58.698Z,61.01
2022-11-27T06:38:01.649Z,60.43
2022-11-27T06:43:04.657Z,59.77
2022-11-27T06:48:07.599Z,59.55
2022-11-27T06:53:10.540Z,59.15
2022-11-27T06:58:13.617Z,58.75
2022-11-27T07:03:16.634Z,59.49
2022-11-27T07:08:20.128Z,59.20
2022-11-27T07:13:23.170Z,59.46
2022-11-27T07:18:26.115Z,59.69
2022-11-27T07:23:29.180Z,58.88
2022-11-27T07:28:32.186Z,58.91
2022-11-27T07:33:35.150Z,58.06
2022-11-27T07:38:38.160Z,58.84
2022-11-27T07:43:42.570Z,57.75
2022-11-27T07:48:45.732Z,58.40
2022-11-27T07:53:52.089Z,58.47
2022-11-27T07:58:56.466Z,59.36
2022-11-27T08:03:59.424Z,58.80
2022-11-27T08:09:02.504Z,58.61
2022-11-27T08:14:07.729Z,58.40
2022-11-27T08:19:11.308Z,58.93
2022-11-27T08:24:14.236Z,58.58
2022-11-27T08:29:17.185Z,58.54
2022-11-27T08:34:20.164Z,59.06
2022-11-27T08:39:23.163Z,58.56
2022-11-27T08:44:26.179Z,58.53
2022-11-27T08:49:29.342Z,59.21
2022-11-27T08:54:34.390Z,58.44
2022-11-27T08:59:37.402Z,58.23
2022-11-27T09:04:40.745Z,59.07
2022-11-27T09:09:44.256Z,57.78
2022-11-27T09:14:47.225Z,58.81
2022-11-27T09:19:50.254Z,58.26
2022-11-27T09:24:53.212Z,58.38
2022-11-27T09:29:56.172Z,58.08
2022-11-27T09:34:59.163Z,57.56
2022-11-27T09:40:02.193Z,57.62
2022-11-27T09:45:12.107Z,57.92
2022-11-27T09:50:16.595Z,57.96
2022-11-27T09:55:41.918Z,57.51
2022-11-27T10:00:46.398Z,58.14
2022-11-27T10:06:06.549Z,57.75
2022-11-27T10:11:32.898Z,57.37
2022-11-27T10:16:44.545Z,58.01
2022-11-27T10:22:22.523Z,57.69
2022-11-27T10:27:40.992Z,57.98
2022-11-27T10:32:55.066Z,58.07
2022-11-27T10:38:13.288Z,57.73
2022-11-27T10:43:21.507Z,57.09
2022-11-27T10:48:25.322Z,56.91
2022-11-27T10:53:32.639Z,56.40
2022-11-27T10:58:43.149Z,57.08
2022-11-27T11:03:46.372Z,57.62
2022-11-27T11:09:01.569Z,57.06
2022-11-27T11:14:15.084Z,57.26
2022-11-27T11:19:32.895Z,57.24
2022-11-27T11:24:40.500Z,57.53
2022-11-27T11:29:48.595Z,57.84
2022-11-27T11:35:01.429Z,57.58
2022-11-27T11:40:24.555Z,57.87
2022-11-27T11:45:32.948Z,57.86
2022-11-27T11:50:53.009Z,57.62
2022-11-27T11:56:29.650Z,57.84
2022-11-27T12:01:44.981Z,57.18
2022-11-27T12:07:01.177Z,58.00
2022-11-27T12:12:22.814Z,58.11
2022-11-27T12:17:37.958Z,58.44
2022-11-27T12:23:18.193Z,57.88
2022-11-27T12:28:26.980Z,58.14
2022-11-27T12:33:32.803Z,58.32
2022-11-27T12:38:59.739Z,58.20
2022-11-27T12:44:03.200Z,58.85
2022-11-27T12:49:43.156Z,58.91
2022-11-27T12:55:03.152Z,58.81
2022-11-27T13:00:19.763Z,58.57
2022-11-27T13:05:27.020Z,58.73
2022-11-27T13:10:36.322Z,58.17
2022-11-27T13:16:00.047Z,58.42
2022-11-27T13:21:08.786Z,58.38
2022-11-27T13:26:35.502Z,58.63
2022-11-27T13:31:39.690Z,58.79
2022-11-27T13:36:46.427Z,58.52
2022-11-27T13:41:59.613Z,57.98
2022-11-27T13:47:10.030Z,58.42
2022-11-27T13:52:16.951Z,58.57
2022-11-27T13:57:21.633Z,58.29
2022-11-27T14:02:25.943Z,58.66
2022-11-27T14:07:37.701Z,58.54
2022-11-27T14:12:51.919Z,58.19
2022-11-27T14:18:10.894Z,58.27
2022-11-27T14:23:14.252Z,58.36
2022-11-27T14:28:22.048Z,58.70
2022-11-27T14:33:26.336Z,58.19
2022-11-27T14:38:31.641Z,57.99
2022-11-27T14:43:34.752Z,57.75
2022-11-27T14:48:47.198Z,57.81
2022-11-27T14:53:54.284Z,58.28
2022-11-27T14:58:57.914Z,58.45
2022-11-27T15:04:06.525Z,57.99
2022-11-27T15:09:36.144Z,57.94
2022-11-27T15:14:39.346Z,57.74
2022-11-27T15:19:44.011Z,57.39
2022-11-27T15:24:47.503Z,57.59
2022-11-27T15:29:50.409Z,57.17
2022-11-27T15:34:54.889Z,56.67
2022-11-27T15:39:59.666Z,56.71
2022-11-27T15:45:02.631Z,56.31
2022-11-27T15:50:07.998Z,56.70
2022-11-27T15:55:17.334Z,56.55
2022-11-27T16:00:22.406Z,56.09
2022-11-27T16:05:25.532Z,56.36
2022-11-27T16:10:28.510Z,55.87
2022-11-27T16:15:33.079Z,56.30
2022-11-27T16:20:36.312Z,55.90
2022-11-27T16:25:39.641Z,55.93
2022-11-27T16:30:42.599Z,55.96
2022-11-27T16:35:45.703Z,55.44
2022-11-27T16:40:50.086Z,55.89
2022-11-27T16:45:53.898Z,55.17
2022-11-27T16:51:05.789Z,55.45
2022-11-27T16:56:10.604Z,55.49
2022-11-27T17:01:16.678Z,55.53
2022-11-27T17:06:30.170Z,55.85
2022-11-27T17:11:35.134Z,55.32
2022-11-27T17:16:41.526Z,55.46
2022-11-27T17:21:46.274Z,55.61
2022-11-27T17:26:50.099Z,55.83
2022-11-27T17:31:53.209Z,55.35
2022-11-27T17:36:57.866Z,56.10
2022-11-27T17:42:00.903Z,55.73
2022-11-27T17:47:03.853Z,55.40
2022-11-27T17:52:07.084Z,55.48
2022-11-27T17:57:12.842Z,55.49
2022-11-27T18:02:16.076Z,55.42
2022-11-27T18:07:20.427Z,55.69
2022-11-27T18:12:25.297Z,55.10
2022-11-27T18:17:29.367Z,54.89
2022-11-27T18:22:32.377Z,55.43
2022-11-27T18:27:35.442Z,54.96
2022-11-27T18:32:40.340Z,54.54
2022-11-27T18:37:43.288Z,54.96
2022-11-27T18:42:46.307Z,55.10
2022-11-27T18:47:49.266Z,54.92
2022-11-27T18:52:52.399Z,55.04
2022-11-27T18:57:55.460Z,55.48
2022-11-27T19:02:58.680Z,55.14
2022-11-27T19:08:04.512Z,55.14
2022-11-27T19:13:07.566Z,55.36
2022-11-27T19:18:10.602Z,55.83
2022-11-27T19:23:17.996Z,55.47
2022-11-27T19:28:21.559Z,55.49
2022-11-27T19:33:25.585Z,56.21
2022-11-27T19:38:28.785Z,56.24
2022-11-27T19:43:31.812Z,56.69
2022-11-27T19:48:34.944Z,56.29
2022-11-27T19:53:38.294Z,57.86
2022-11-27T19:58:41.610Z,57.57
2022-11-27T20:03:45.475Z,57.76
2022-11-27T20:08:51.548Z,58.00
2022-11-27T20:13:58.939Z,57.74
2022-11-27T20:19:05.689Z,58.45
2022-11-27T20:24:10.644Z,58.77
2022-11-27T20:29:14.285Z,58.02
2022-11-27T20:34:21.420Z,58.02
2022-11-27T20:39:24.468Z,57.64
2022-11-27T20:44:28.240Z,58.34
2022-11-27T20:49:34.029Z,57.50
2022-11-27T20:54:37.544Z,57.18
2022-11-27T20:59:43.129Z,58.46
2022-11-27T21:04:46.338Z,57.69
2022-11-27T21:09:49.826Z,57.94
2022-11-27T21:14:53.607Z,57.50
2022-11-27T21:19:56.840Z,57.45
2022-11-27T21:24:59.792Z,56.99
2022-11-27T21:30:06.581Z,57.21
2022-11-27T21:35:09.990Z,58.14
2022-11-27T21:40:13.743Z,57.14
2022-11-27T21:45:16.807Z,57.50
2022-11-27T21:50:19.791Z,57.80
2022-11-27T21:55:23.592Z,57.31
2022-11-27T22:00:26.578Z,57.04
2022-11-27T22:05:30.133Z,57.04
2022-11-27T22:10:33.122Z,57.03
2022-11-27T22:15:37.248Z,57.23
2022-11-27T22:20:41.462Z,57.13
2022-11-27T22:25:44.484Z,56.78
2022-11-27T22:30:47.771Z,57.06
2022-11-27T22:35:50.743Z,56.87
2022-11-27T22:40:58.653Z,56.81
2022-11-27T22:46:14.569Z,56.36
2022-11-27T22:51:17.556Z,56.49
2022-11-27T22:56:20.861Z,56.72
2022-11-27T23:01:25.832Z,55.88
2022-11-27T23:06:29.063Z,56.34
2022-11-27T23:11:32.705Z,56.21
2022-11-27T23:16:35.781Z,56.33
2022-11-27T23:21:39.678Z,56.23
2022-11-27T23:26:43.362Z,56.16
2022-11-27T23:31:46.548Z,55.79
2022-11-27T23:36:49.548Z,55.58
2022-11-27T23:41:52.494Z,55.43
2022-11-27T23:46:55.713Z,55.68
2022-11-27T23:51:59.383Z,55.83
2022-11-27T23:57:03.684Z,55.76
